ROMMA est une association bénévole à but non lucratif. Votre soutien est indispensable : ADHERER à ROMMA ou FAIRE un DON

Crest - (26, Drôme)

Vallée de la Drôme (315 m)   Longitude: 5°2' E   Latitude: 44°44' N Station partenaire n°62
 

Détail journalier du     <<     >>

Température Precipitation Humidité Pression Vent Dir Rafale Dir. rafale Ensol.
Heure (°C) (mm) (%) (hPa) (km/h) (km/h) (min)
01:00 23.006010136SSE16SE0
02:00 21.806210133SE15SSE0
03:00 19.907110131SSE6SSE0
04:00 21.106410131---13SSE0
05:00 20.607610132SE10SSE0
06:00 19.607610136ENE19E0
07:00 20.407110133SE13SE0
08:00 20.906910132SE11SE0
09:00 22.306610134SE13SE24
10:00 24.605610134ESE13SE49
11:00 26.305110135SE15SE57
12:00 27.404710126SE19SE51
13:00 29.403610126SE23ESE60
14:00 31.702810119SE29SSE60
15:00 31.8021101113SE35SE60
16:00 31.3021101012SE37SE42
17:00 30.9026100913SE35SE7
18:00 30.1027100915SE42SE27
19:00 29.102910109SE35SE0
20:00 27.903310108SE29SE34
21:00 26.303810106SE23SE0
22:00 24.704410113SE13SE0
23:00 24.304610113SE10SE0
minuit 21.805310102SE10SE0

Graphique du 06-08-2019

 

Serveur OMMA